sensor_id;sensor_type;location;lat;lon;timestamp;P1;durP1;ratioP1;P2;durP2;ratioP2
33836;SDS011;20140;49.356;8.812;2023-04-03T00:01:03;3.60;;;1.80;;
33836;SDS011;20140;49.356;8.812;2023-04-03T00:03:29;3.03;;;1.83;;
33836;SDS011;20140;49.356;8.812;2023-04-03T00:05:54;1.98;;;1.52;;
33836;SDS011;20140;49.356;8.812;2023-04-03T00:08:20;3.00;;;1.60;;
33836;SDS011;20140;49.356;8.812;2023-04-03T00:10:46;2.95;;;1.70;;
33836;SDS011;20140;49.356;8.812;2023-04-03T00:13:12;5.00;;;2.72;;
33836;SDS011;20140;49.356;8.812;2023-04-03T00:15:37;2.53;;;2.30;;
33836;SDS011;20140;49.356;8.812;2023-04-03T00:18:03;2.10;;;1.90;;
33836;SDS011;20140;49.356;8.812;2023-04-03T00:20:29;2.10;;;1.85;;
33836;SDS011;20140;49.356;8.812;2023-04-03T00:22:55;5.78;;;2.60;;
33836;SDS011;20140;49.356;8.812;2023-04-03T00:25:21;2.40;;;1.90;;
33836;SDS011;20140;49.356;8.812;2023-04-03T00:27:46;2.60;;;1.50;;
33836;SDS011;20140;49.356;8.812;2023-04-03T00:30:16;3.87;;;2.00;;
33836;SDS011;20140;49.356;8.812;2023-04-03T00:32:42;4.43;;;1.98;;
33836;SDS011;20140;49.356;8.812;2023-04-03T00:35:08;1.87;;;1.60;;
33836;SDS011;20140;49.356;8.812;2023-04-03T00:37:34;4.90;;;2.95;;
33836;SDS011;20140;49.356;8.812;2023-04-03T00:40:00;3.33;;;2.00;;
33836;SDS011;20140;49.356;8.812;2023-04-03T00:42:26;3.38;;;1.92;;
33836;SDS011;20140;49.356;8.812;2023-04-03T00:47:20;2.03;;;1.73;;
33836;SDS011;20140;49.356;8.812;2023-04-03T00:49:47;1.70;;;1.37;;
33836;SDS011;20140;49.356;8.812;2023-04-03T00:52:15;3.40;;;1.88;;
33836;SDS011;20140;49.356;8.812;2023-04-03T00:54:42;3.47;;;2.42;;
33836;SDS011;20140;49.356;8.812;2023-04-03T00:57:10;2.00;;;1.42;;
33836;SDS011;20140;49.356;8.812;2023-04-03T00:59:41;5.35;;;1.70;;
33836;SDS011;20140;49.356;8.812;2023-04-03T01:02:09;1.88;;;1.50;;
33836;SDS011;20140;49.356;8.812;2023-04-03T01:04:36;3.47;;;1.40;;
33836;SDS011;20140;49.356;8.812;2023-04-03T01:07:04;1.98;;;1.60;;
33836;SDS011;20140;49.356;8.812;2023-04-03T01:09:41;4.50;;;2.30;;
33836;SDS011;20140;49.356;8.812;2023-04-03T01:14:41;2.72;;;1.45;;
33836;SDS011;20140;49.356;8.812;2023-04-03T01:17:27;2.80;;;1.40;;
33836;SDS011;20140;49.356;8.812;2023-04-03T01:20:14;3.67;;;1.88;;
33836;SDS011;20140;49.356;8.812;2023-04-03T01:28:08;3.07;;;2.07;;
33836;SDS011;20140;49.356;8.812;2023-04-03T01:30:41;4.47;;;1.98;;
33836;SDS011;20140;49.356;8.812;2023-04-03T01:33:15;2.72;;;1.63;;
33836;SDS011;20140;49.356;8.812;2023-04-03T01:35:40;3.60;;;1.80;;
33836;SDS011;20140;49.356;8.812;2023-04-03T01:38:06;2.80;;;1.73;;
33836;SDS011;20140;49.356;8.812;2023-04-03T01:40:31;3.92;;;2.13;;
33836;SDS011;20140;49.356;8.812;2023-04-03T01:42:57;1.73;;;1.40;;
33836;SDS011;20140;49.356;8.812;2023-04-03T01:45:23;4.33;;;1.47;;
33836;SDS011;20140;49.356;8.812;2023-04-03T01:47:48;3.30;;;1.92;;
33836;SDS011;20140;49.356;8.812;2023-04-03T01:50:14;3.05;;;1.98;;
33836;SDS011;20140;49.356;8.812;2023-04-03T01:52:40;2.13;;;1.88;;
33836;SDS011;20140;49.356;8.812;2023-04-03T01:55:05;2.10;;;1.63;;
33836;SDS011;20140;49.356;8.812;2023-04-03T01:57:31;2.25;;;1.80;;
33836;SDS011;20140;49.356;8.812;2023-04-03T01:59:57;2.80;;;1.63;;
33836;SDS011;20140;49.356;8.812;2023-04-03T02:02:22;5.50;;;1.77;;
33836;SDS011;20140;49.356;8.812;2023-04-03T02:04:48;3.97;;;1.87;;
33836;SDS011;20140;49.356;8.812;2023-04-03T02:07:13;2.60;;;1.63;;
33836;SDS011;20140;49.356;8.812;2023-04-03T02:09:39;3.58;;;1.77;;
33836;SDS011;20140;49.356;8.812;2023-04-03T02:12:04;3.58;;;2.15;;
33836;SDS011;20140;49.356;8.812;2023-04-03T02:14:30;2.38;;;1.73;;
33836;SDS011;20140;49.356;8.812;2023-04-03T02:16:55;2.38;;;1.77;;
33836;SDS011;20140;49.356;8.812;2023-04-03T02:19:21;2.05;;;1.52;;
33836;SDS011;20140;49.356;8.812;2023-04-03T02:21:47;1.52;;;1.42;;
33836;SDS011;20140;49.356;8.812;2023-04-03T02:24:12;2.08;;;1.73;;
33836;SDS011;20140;49.356;8.812;2023-04-03T02:26:38;3.72;;;1.95;;
33836;SDS011;20140;49.356;8.812;2023-04-03T02:29:03;2.05;;;1.70;;
33836;SDS011;20140;49.356;8.812;2023-04-03T02:31:29;2.70;;;2.05;;
33836;SDS011;20140;49.356;8.812;2023-04-03T02:33:54;3.55;;;2.22;;
33836;SDS011;20140;49.356;8.812;2023-04-03T02:36:20;2.83;;;2.15;;
33836;SDS011;20140;49.356;8.812;2023-04-03T02:38:46;2.40;;;1.63;;
33836;SDS011;20140;49.356;8.812;2023-04-03T02:41:12;3.00;;;1.95;;
33836;SDS011;20140;49.356;8.812;2023-04-03T02:43:38;2.33;;;1.65;;
33836;SDS011;20140;49.356;8.812;2023-04-03T02:46:04;3.65;;;1.60;;
33836;SDS011;20140;49.356;8.812;2023-04-03T02:48:30;3.67;;;1.90;;
33836;SDS011;20140;49.356;8.812;2023-04-03T02:50:56;3.38;;;1.45;;
33836;SDS011;20140;49.356;8.812;2023-04-03T02:53:21;3.13;;;2.28;;
33836;SDS011;20140;49.356;8.812;2023-04-03T02:55:47;3.67;;;2.72;;
33836;SDS011;20140;49.356;8.812;2023-04-03T02:58:15;2.20;;;1.48;;
33836;SDS011;20140;49.356;8.812;2023-04-03T03:00:41;4.53;;;2.00;;
33836;SDS011;20140;49.356;8.812;2023-04-03T03:03:07;2.20;;;1.67;;
33836;SDS011;20140;49.356;8.812;2023-04-03T03:05:32;3.42;;;1.90;;
33836;SDS011;20140;49.356;8.812;2023-04-03T03:07:58;4.82;;;1.98;;
33836;SDS011;20140;49.356;8.812;2023-04-03T03:10:23;2.50;;;1.60;;
33836;SDS011;20140;49.356;8.812;2023-04-03T03:12:49;1.80;;;1.60;;
33836;SDS011;20140;49.356;8.812;2023-04-03T03:15:15;3.67;;;2.07;;
33836;SDS011;20140;49.356;8.812;2023-04-03T03:17:42;2.25;;;1.45;;
33836;SDS011;20140;49.356;8.812;2023-04-03T03:20:08;3.35;;;3.00;;
33836;SDS011;20140;49.356;8.812;2023-04-03T03:22:34;3.37;;;1.70;;
33836;SDS011;20140;49.356;8.812;2023-04-03T03:25:00;3.65;;;1.58;;
33836;SDS011;20140;49.356;8.812;2023-04-03T03:27:26;3.87;;;1.80;;
33836;SDS011;20140;49.356;8.812;2023-04-03T03:29:51;1.98;;;1.63;;
33836;SDS011;20140;49.356;8.812;2023-04-03T03:32:17;2.85;;;1.58;;
33836;SDS011;20140;49.356;8.812;2023-04-03T03:34:43;2.92;;;1.92;;
33836;SDS011;20140;49.356;8.812;2023-04-03T03:37:08;1.90;;;1.52;;
33836;SDS011;20140;49.356;8.812;2023-04-03T03:39:33;3.40;;;1.80;;
33836;SDS011;20140;49.356;8.812;2023-04-03T03:41:59;2.97;;;1.83;;
33836;SDS011;20140;49.356;8.812;2023-04-03T03:44:25;2.17;;;1.45;;
33836;SDS011;20140;49.356;8.812;2023-04-03T03:46:50;2.53;;;1.77;;
33836;SDS011;20140;49.356;8.812;2023-04-03T03:49:16;2.00;;;1.40;;
33836;SDS011;20140;49.356;8.812;2023-04-03T03:51:41;5.30;;;2.50;;
33836;SDS011;20140;49.356;8.812;2023-04-03T03:54:07;3.92;;;2.13;;
33836;SDS011;20140;49.356;8.812;2023-04-03T03:56:33;2.05;;;1.85;;
33836;SDS011;20140;49.356;8.812;2023-04-03T03:58:58;2.92;;;2.28;;
33836;SDS011;20140;49.356;8.812;2023-04-03T04:01:24;3.92;;;2.08;;
33836;SDS011;20140;49.356;8.812;2023-04-03T04:03:49;2.45;;;2.22;;
33836;SDS011;20140;49.356;8.812;2023-04-03T04:06:15;5.45;;;2.20;;
33836;SDS011;20140;49.356;8.812;2023-04-03T04:08:41;3.95;;;1.98;;
33836;SDS011;20140;49.356;8.812;2023-04-03T04:11:07;2.23;;;2.03;;
33836;SDS011;20140;49.356;8.812;2023-04-03T04:13:33;5.85;;;1.65;;
33836;SDS011;20140;49.356;8.812;2023-04-03T04:15:59;3.17;;;2.03;;
33836;SDS011;20140;49.356;8.812;2023-04-03T04:18:24;4.37;;;2.00;;
33836;SDS011;20140;49.356;8.812;2023-04-03T04:20:50;2.30;;;2.00;;
33836;SDS011;20140;49.356;8.812;2023-04-03T04:23:16;4.05;;;2.25;;
33836;SDS011;20140;49.356;8.812;2023-04-03T04:25:46;4.13;;;2.17;;
33836;SDS011;20140;49.356;8.812;2023-04-03T04:28:13;4.45;;;3.28;;
33836;SDS011;20140;49.356;8.812;2023-04-03T04:30:39;4.80;;;1.95;;
33836;SDS011;20140;49.356;8.812;2023-04-03T04:33:04;3.70;;;2.23;;
33836;SDS011;20140;49.356;8.812;2023-04-03T04:35:30;2.80;;;1.90;;
33836;SDS011;20140;49.356;8.812;2023-04-03T04:37:55;3.40;;;2.07;;
33836;SDS011;20140;49.356;8.812;2023-04-03T04:40:21;2.50;;;1.67;;
33836;SDS011;20140;49.356;8.812;2023-04-03T04:42:47;3.08;;;2.05;;
33836;SDS011;20140;49.356;8.812;2023-04-03T04:45:12;3.23;;;1.90;;
33836;SDS011;20140;49.356;8.812;2023-04-03T04:47:39;2.30;;;2.05;;
33836;SDS011;20140;49.356;8.812;2023-04-03T04:50:05;4.60;;;2.15;;
33836;SDS011;20140;49.356;8.812;2023-04-03T04:52:31;3.83;;;1.88;;
33836;SDS011;20140;49.356;8.812;2023-04-03T04:54:56;3.17;;;2.40;;
33836;SDS011;20140;49.356;8.812;2023-04-03T04:57:22;3.20;;;2.10;;
33836;SDS011;20140;49.356;8.812;2023-04-03T04:59:47;4.55;;;2.08;;
33836;SDS011;20140;49.356;8.812;2023-04-03T05:02:13;2.28;;;1.67;;
33836;SDS011;20140;49.356;8.812;2023-04-03T05:04:38;4.97;;;2.28;;
33836;SDS011;20140;49.356;8.812;2023-04-03T05:07:04;3.72;;;2.15;;
33836;SDS011;20140;49.356;8.812;2023-04-03T05:09:30;2.92;;;2.45;;
33836;SDS011;20140;49.356;8.812;2023-04-03T05:11:55;4.03;;;2.28;;
33836;SDS011;20140;49.356;8.812;2023-04-03T05:14:21;3.00;;;1.92;;
33836;SDS011;20140;49.356;8.812;2023-04-03T05:16:47;3.03;;;1.90;;
33836;SDS011;20140;49.356;8.812;2023-04-03T05:19:13;3.83;;;1.80;;
33836;SDS011;20140;49.356;8.812;2023-04-03T05:21:38;3.47;;;2.30;;
33836;SDS011;20140;49.356;8.812;2023-04-03T05:24:04;4.88;;;2.40;;
33836;SDS011;20140;49.356;8.812;2023-04-03T05:26:30;3.17;;;2.35;;
33836;SDS011;20140;49.356;8.812;2023-04-03T05:28:56;2.28;;;2.08;;
33836;SDS011;20140;49.356;8.812;2023-04-03T05:31:22;4.57;;;2.20;;
33836;SDS011;20140;49.356;8.812;2023-04-03T05:33:48;3.23;;;2.53;;
33836;SDS011;20140;49.356;8.812;2023-04-03T05:36:13;3.20;;;2.13;;
33836;SDS011;20140;49.356;8.812;2023-04-03T05:38:40;4.25;;;2.63;;
33836;SDS011;20140;49.356;8.812;2023-04-03T05:41:05;3.40;;;2.00;;
33836;SDS011;20140;49.356;8.812;2023-04-03T05:43:31;2.63;;;2.37;;
33836;SDS011;20140;49.356;8.812;2023-04-03T05:45:58;2.45;;;1.92;;
33836;SDS011;20140;49.356;8.812;2023-04-03T05:48:24;3.42;;;1.83;;
33836;SDS011;20140;49.356;8.812;2023-04-03T05:50:50;4.55;;;2.30;;
33836;SDS011;20140;49.356;8.812;2023-04-03T05:53:17;4.40;;;2.03;;
33836;SDS011;20140;49.356;8.812;2023-04-03T05:55:46;5.93;;;2.30;;
33836;SDS011;20140;49.356;8.812;2023-04-03T05:58:13;2.70;;;2.10;;
33836;SDS011;20140;49.356;8.812;2023-04-03T06:00:39;2.87;;;2.30;;
33836;SDS011;20140;49.356;8.812;2023-04-03T06:03:05;3.60;;;2.50;;
33836;SDS011;20140;49.356;8.812;2023-04-03T06:05:31;3.22;;;2.05;;
33836;SDS011;20140;49.356;8.812;2023-04-03T06:07:56;4.97;;;2.77;;
33836;SDS011;20140;49.356;8.812;2023-04-03T06:10:22;4.40;;;2.43;;
33836;SDS011;20140;49.356;8.812;2023-04-03T06:12:48;3.70;;;2.93;;
33836;SDS011;20140;49.356;8.812;2023-04-03T06:15:14;3.20;;;2.67;;
33836;SDS011;20140;49.356;8.812;2023-04-03T06:17:40;4.93;;;3.70;;
33836;SDS011;20140;49.356;8.812;2023-04-03T06:20:06;3.70;;;2.88;;
33836;SDS011;20140;49.356;8.812;2023-04-03T06:22:32;5.03;;;3.17;;
33836;SDS011;20140;49.356;8.812;2023-04-03T06:24:58;6.00;;;3.43;;
33836;SDS011;20140;49.356;8.812;2023-04-03T06:27:23;7.13;;;3.63;;
33836;SDS011;20140;49.356;8.812;2023-04-03T06:29:49;4.87;;;3.57;;
33836;SDS011;20140;49.356;8.812;2023-04-03T06:32:15;3.93;;;2.70;;
33836;SDS011;20140;49.356;8.812;2023-04-03T06:34:41;5.53;;;3.70;;
33836;SDS011;20140;49.356;8.812;2023-04-03T06:37:10;5.33;;;3.33;;
33836;SDS011;20140;49.356;8.812;2023-04-03T06:39:40;4.35;;;3.20;;
33836;SDS011;20140;49.356;8.812;2023-04-03T06:42:06;5.15;;;2.80;;
33836;SDS011;20140;49.356;8.812;2023-04-03T06:44:32;5.10;;;3.67;;
33836;SDS011;20140;49.356;8.812;2023-04-03T06:46:59;7.97;;;2.90;;
33836;SDS011;20140;49.356;8.812;2023-04-03T06:49:25;4.53;;;3.33;;
33836;SDS011;20140;49.356;8.812;2023-04-03T06:51:51;6.60;;;3.05;;
33836;SDS011;20140;49.356;8.812;2023-04-03T06:54:17;5.27;;;3.27;;
33836;SDS011;20140;49.356;8.812;2023-04-03T06:56:43;5.10;;;3.38;;
33836;SDS011;20140;49.356;8.812;2023-04-03T06:59:09;9.80;;;3.00;;
33836;SDS011;20140;49.356;8.812;2023-04-03T07:01:37;4.10;;;3.38;;
33836;SDS011;20140;49.356;8.812;2023-04-03T07:04:03;6.13;;;3.80;;
33836;SDS011;20140;49.356;8.812;2023-04-03T07:06:29;4.77;;;3.43;;
33836;SDS011;20140;49.356;8.812;2023-04-03T07:08:56;5.45;;;3.70;;
33836;SDS011;20140;49.356;8.812;2023-04-03T07:11:21;8.55;;;3.45;;
33836;SDS011;20140;49.356;8.812;2023-04-03T07:13:47;3.88;;;3.50;;
33836;SDS011;20140;49.356;8.812;2023-04-03T07:16:13;4.00;;;3.50;;
33836;SDS011;20140;49.356;8.812;2023-04-03T07:18:38;5.03;;;3.70;;
33836;SDS011;20140;49.356;8.812;2023-04-03T07:21:04;5.80;;;3.07;;
33836;SDS011;20140;49.356;8.812;2023-04-03T07:23:29;5.97;;;2.80;;
33836;SDS011;20140;49.356;8.812;2023-04-03T07:25:55;3.57;;;2.23;;
33836;SDS011;20140;49.356;8.812;2023-04-03T07:28:21;3.60;;;2.63;;
33836;SDS011;20140;49.356;8.812;2023-04-03T07:31:01;5.32;;;2.80;;
33836;SDS011;20140;49.356;8.812;2023-04-03T07:33:33;3.00;;;2.22;;
33836;SDS011;20140;49.356;8.812;2023-04-03T07:36:00;6.80;;;2.47;;
33836;SDS011;20140;49.356;8.812;2023-04-03T07:38:26;6.03;;;2.70;;
33836;SDS011;20140;49.356;8.812;2023-04-03T07:40:51;3.95;;;2.60;;
33836;SDS011;20140;49.356;8.812;2023-04-03T07:43:18;6.03;;;2.67;;
33836;SDS011;20140;49.356;8.812;2023-04-03T07:45:45;6.47;;;2.05;;
33836;SDS011;20140;49.356;8.812;2023-04-03T07:48:14;2.87;;;1.80;;
33836;SDS011;20140;49.356;8.812;2023-04-03T07:50:42;2.28;;;2.08;;
33836;SDS011;20140;49.356;8.812;2023-04-03T07:53:08;6.57;;;2.08;;
33836;SDS011;20140;49.356;8.812;2023-04-03T07:55:34;3.43;;;2.30;;
33836;SDS011;20140;49.356;8.812;2023-04-03T07:58:05;4.45;;;2.20;;
33836;SDS011;20140;49.356;8.812;2023-04-03T08:00:31;3.35;;;1.65;;
33836;SDS011;20140;49.356;8.812;2023-04-03T08:02:56;3.10;;;1.80;;
33836;SDS011;20140;49.356;8.812;2023-04-03T08:05:22;3.15;;;1.63;;
33836;SDS011;20140;49.356;8.812;2023-04-03T08:07:47;3.97;;;1.70;;
33836;SDS011;20140;49.356;8.812;2023-04-03T08:10:13;3.30;;;1.70;;
33836;SDS011;20140;49.356;8.812;2023-04-03T08:12:39;1.55;;;1.45;;
33836;SDS011;20140;49.356;8.812;2023-04-03T08:15:06;2.65;;;1.25;;
33836;SDS011;20140;49.356;8.812;2023-04-03T08:17:33;4.15;;;2.00;;
33836;SDS011;20140;49.356;8.812;2023-04-03T08:19:59;2.53;;;1.73;;
33836;SDS011;20140;49.356;8.812;2023-04-03T08:22:25;3.30;;;1.25;;
33836;SDS011;20140;49.356;8.812;2023-04-03T08:24:51;1.97;;;1.37;;
33836;SDS011;20140;49.356;8.812;2023-04-03T08:27:16;4.87;;;1.70;;
33836;SDS011;20140;49.356;8.812;2023-04-03T08:29:42;4.67;;;1.50;;
33836;SDS011;20140;49.356;8.812;2023-04-03T08:32:07;1.70;;;1.20;;
33836;SDS011;20140;49.356;8.812;2023-04-03T08:34:33;2.20;;;1.30;;
33836;SDS011;20140;49.356;8.812;2023-04-03T08:37:00;4.13;;;1.70;;
33836;SDS011;20140;49.356;8.812;2023-04-03T08:39:26;4.70;;;2.03;;
33836;SDS011;20140;49.356;8.812;2023-04-03T08:41:52;6.13;;;1.65;;
33836;SDS011;20140;49.356;8.812;2023-04-03T08:44:38;2.85;;;1.50;;
33836;SDS011;20140;49.356;8.812;2023-04-03T08:47:23;2.03;;;1.10;;
33836;SDS011;20140;49.356;8.812;2023-04-03T08:49:57;2.90;;;1.48;;
33836;SDS011;20140;49.356;8.812;2023-04-03T08:52:36;1.25;;;1.15;;
33836;SDS011;20140;49.356;8.812;2023-04-03T08:55:06;3.42;;;1.60;;
33836;SDS011;20140;49.356;8.812;2023-04-03T08:57:40;3.70;;;2.22;;
33836;SDS011;20140;49.356;8.812;2023-04-03T09:02:44;2.75;;;1.55;;
33836;SDS011;20140;49.356;8.812;2023-04-03T09:05:14;4.30;;;1.70;;
33836;SDS011;20140;49.356;8.812;2023-04-03T09:07:43;2.50;;;1.60;;
33836;SDS011;20140;49.356;8.812;2023-04-03T09:10:13;2.75;;;1.27;;
33836;SDS011;20140;49.356;8.812;2023-04-03T09:12:44;4.40;;;1.23;;
33836;SDS011;20140;49.356;8.812;2023-04-03T09:15:17;2.85;;;1.08;;
33836;SDS011;20140;49.356;8.812;2023-04-03T09:17:53;3.38;;;1.60;;
33836;SDS011;20140;49.356;8.812;2023-04-03T09:20:43;1.48;;;1.05;;
33836;SDS011;20140;49.356;8.812;2023-04-03T09:23:26;2.23;;;1.30;;
33836;SDS011;20140;49.356;8.812;2023-04-03T09:25:57;3.03;;;1.30;;
33836;SDS011;20140;49.356;8.812;2023-04-03T09:28:32;1.77;;;1.02;;
33836;SDS011;20140;49.356;8.812;2023-04-03T09:31:05;2.33;;;1.25;;
33836;SDS011;20140;49.356;8.812;2023-04-03T09:33:49;2.97;;;1.13;;
33836;SDS011;20140;49.356;8.812;2023-04-03T09:39:09;3.50;;;1.20;;
33836;SDS011;20140;49.356;8.812;2023-04-03T09:41:55;3.05;;;0.98;;
33836;SDS011;20140;49.356;8.812;2023-04-03T09:46:59;2.10;;;1.30;;
33836;SDS011;20140;49.356;8.812;2023-04-03T09:49:42;3.05;;;1.23;;
33836;SDS011;20140;49.356;8.812;2023-04-03T09:52:24;4.57;;;1.63;;
33836;SDS011;20140;49.356;8.812;2023-04-03T09:54:51;1.77;;;1.20;;
33836;SDS011;20140;49.356;8.812;2023-04-03T09:57:16;1.60;;;0.83;;
33836;SDS011;20140;49.356;8.812;2023-04-03T09:59:45;3.97;;;1.30;;
33836;SDS011;20140;49.356;8.812;2023-04-03T10:02:22;2.00;;;0.90;;
33836;SDS011;20140;49.356;8.812;2023-04-03T10:04:56;1.40;;;0.70;;
33836;SDS011;20140;49.356;8.812;2023-04-03T10:07:26;2.30;;;1.08;;
33836;SDS011;20140;49.356;8.812;2023-04-03T10:09:57;2.08;;;1.17;;
33836;SDS011;20140;49.356;8.812;2023-04-03T10:12:25;1.23;;;0.90;;
33836;SDS011;20140;49.356;8.812;2023-04-03T10:19:53;2.53;;;0.85;;
33836;SDS011;20140;49.356;8.812;2023-04-03T10:25:32;1.98;;;0.90;;
33836;SDS011;20140;49.356;8.812;2023-04-03T10:28:08;5.43;;;1.33;;
33836;SDS011;20140;49.356;8.812;2023-04-03T10:33:49;3.08;;;1.00;;
33836;SDS011;20140;49.356;8.812;2023-04-03T10:39:04;2.50;;;0.90;;
33836;SDS011;20140;49.356;8.812;2023-04-03T10:42:03;2.22;;;1.20;;
33836;SDS011;20140;49.356;8.812;2023-04-03T10:47:05;1.67;;;0.93;;
33836;SDS011;20140;49.356;8.812;2023-04-03T10:49:47;3.80;;;1.00;;
33836;SDS011;20140;49.356;8.812;2023-04-03T10:52:17;2.00;;;1.30;;
33836;SDS011;20140;49.356;8.812;2023-04-03T10:57:24;4.30;;;1.38;;
33836;SDS011;20140;49.356;8.812;2023-04-03T10:59:53;1.92;;;0.82;;
33836;SDS011;20140;49.356;8.812;2023-04-03T11:05:44;2.95;;;2.05;;
33836;SDS011;20140;49.356;8.812;2023-04-03T11:07:53;3.20;;;1.38;;
33836;SDS011;20140;49.356;8.812;2023-04-03T11:10:23;1.88;;;1.05;;
33836;SDS011;20140;49.356;8.812;2023-04-03T11:13:01;3.30;;;1.50;;
33836;SDS011;20140;49.356;8.812;2023-04-03T11:15:35;2.10;;;1.17;;
33836;SDS011;20140;49.356;8.812;2023-04-03T11:18:11;1.73;;;1.23;;
33836;SDS011;20140;49.356;8.812;2023-04-03T11:20:42;2.22;;;1.67;;
33836;SDS011;20140;49.356;8.812;2023-04-03T11:23:21;2.08;;;1.25;;
33836;SDS011;20140;49.356;8.812;2023-04-03T11:25:51;3.77;;;1.00;;
33836;SDS011;20140;49.356;8.812;2023-04-03T11:28:31;3.40;;;1.20;;
33836;SDS011;20140;49.356;8.812;2023-04-03T11:33:54;1.58;;;1.08;;
33836;SDS011;20140;49.356;8.812;2023-04-03T11:36:28;2.58;;;1.23;;
33836;SDS011;20140;49.356;8.812;2023-04-03T11:39:10;5.25;;;2.20;;
33836;SDS011;20140;49.356;8.812;2023-04-03T11:41:45;1.85;;;1.33;;
33836;SDS011;20140;49.356;8.812;2023-04-03T11:47:04;4.45;;;1.73;;
33836;SDS011;20140;49.356;8.812;2023-04-03T11:55:01;1.80;;;1.10;;
33836;SDS011;20140;49.356;8.812;2023-04-03T11:57:46;6.90;;;2.33;;
33836;SDS011;20140;49.356;8.812;2023-04-03T12:05:51;3.33;;;1.20;;
33836;SDS011;20140;49.356;8.812;2023-04-03T12:08:23;3.03;;;1.10;;
33836;SDS011;20140;49.356;8.812;2023-04-03T12:13:36;2.65;;;1.50;;
33836;SDS011;20140;49.356;8.812;2023-04-03T12:26:44;4.53;;;2.08;;
33836;SDS011;20140;49.356;8.812;2023-04-03T12:35:01;3.40;;;1.65;;
33836;SDS011;20140;49.356;8.812;2023-04-03T12:48:31;4.88;;;2.30;;
33836;SDS011;20140;49.356;8.812;2023-04-03T12:51:01;2.25;;;1.33;;
33836;SDS011;20140;49.356;8.812;2023-04-03T12:53:28;3.05;;;1.17;;
33836;SDS011;20140;49.356;8.812;2023-04-03T12:56:19;1.70;;;1.40;;
33836;SDS011;20140;49.356;8.812;2023-04-03T12:58:46;1.95;;;1.40;;
33836;SDS011;20140;49.356;8.812;2023-04-03T13:01:20;5.03;;;2.47;;
33836;SDS011;20140;49.356;8.812;2023-04-03T13:03:49;3.10;;;1.50;;
33836;SDS011;20140;49.356;8.812;2023-04-03T13:06:27;1.80;;;1.30;;
33836;SDS011;20140;49.356;8.812;2023-04-03T13:08:57;5.28;;;2.47;;
33836;SDS011;20140;49.356;8.812;2023-04-03T13:11:26;2.17;;;1.83;;
33836;SDS011;20140;49.356;8.812;2023-04-03T13:14:02;3.23;;;1.87;;
33836;SDS011;20140;49.356;8.812;2023-04-03T13:16:30;1.50;;;1.40;;
33836;SDS011;20140;49.356;8.812;2023-04-03T13:18:57;1.65;;;1.10;;
33836;SDS011;20140;49.356;8.812;2023-04-03T13:21:27;2.95;;;1.50;;
33836;SDS011;20140;49.356;8.812;2023-04-03T13:23:56;3.37;;;1.57;;
33836;SDS011;20140;49.356;8.812;2023-04-03T13:26:25;2.50;;;1.30;;
33836;SDS011;20140;49.356;8.812;2023-04-03T13:28:54;1.83;;;1.30;;
33836;SDS011;20140;49.356;8.812;2023-04-03T13:31:28;2.47;;;1.33;;
33836;SDS011;20140;49.356;8.812;2023-04-03T13:33:59;1.33;;;1.00;;
33836;SDS011;20140;49.356;8.812;2023-04-03T13:36:35;1.83;;;1.45;;
33836;SDS011;20140;49.356;8.812;2023-04-03T13:41:38;2.28;;;1.13;;
33836;SDS011;20140;49.356;8.812;2023-04-03T13:47:21;2.47;;;1.10;;
33836;SDS011;20140;49.356;8.812;2023-04-03T13:50:11;3.60;;;1.40;;
33836;SDS011;20140;49.356;8.812;2023-04-03T13:52:33;1.67;;;1.27;;
33836;SDS011;20140;49.356;8.812;2023-04-03T13:55:28;3.22;;;1.33;;
33836;SDS011;20140;49.356;8.812;2023-04-03T13:57:56;3.60;;;1.65;;
33836;SDS011;20140;49.356;8.812;2023-04-03T14:02:59;1.55;;;1.00;;
33836;SDS011;20140;49.356;8.812;2023-04-03T14:05:25;1.95;;;1.30;;
33836;SDS011;20140;49.356;8.812;2023-04-03T14:07:52;3.03;;;1.10;;
33836;SDS011;20140;49.356;8.812;2023-04-03T14:10:19;1.50;;;1.33;;
33836;SDS011;20140;49.356;8.812;2023-04-03T14:12:45;1.33;;;1.20;;
33836;SDS011;20140;49.356;8.812;2023-04-03T14:15:22;3.90;;;1.33;;
33836;SDS011;20140;49.356;8.812;2023-04-03T14:17:51;1.70;;;1.10;;
33836;SDS011;20140;49.356;8.812;2023-04-03T14:20:18;2.58;;;1.15;;
33836;SDS011;20140;49.356;8.812;2023-04-03T14:22:46;3.63;;;1.80;;
33836;SDS011;20140;49.356;8.812;2023-04-03T14:25:13;3.85;;;1.67;;
33836;SDS011;20140;49.356;8.812;2023-04-03T14:27:41;2.15;;;1.58;;
33836;SDS011;20140;49.356;8.812;2023-04-03T14:30:11;1.88;;;1.05;;
33836;SDS011;20140;49.356;8.812;2023-04-03T14:32:44;2.65;;;1.42;;
33836;SDS011;20140;49.356;8.812;2023-04-03T14:35:10;2.47;;;1.27;;
33836;SDS011;20140;49.356;8.812;2023-04-03T14:37:36;3.15;;;1.40;;
33836;SDS011;20140;49.356;8.812;2023-04-03T14:40:02;2.78;;;1.23;;
33836;SDS011;20140;49.356;8.812;2023-04-03T14:42:30;2.05;;;1.30;;
33836;SDS011;20140;49.356;8.812;2023-04-03T14:44:58;2.70;;;1.40;;
33836;SDS011;20140;49.356;8.812;2023-04-03T14:47:25;2.20;;;1.08;;
33836;SDS011;20140;49.356;8.812;2023-04-03T14:49:52;3.00;;;1.60;;
33836;SDS011;20140;49.356;8.812;2023-04-03T14:52:20;2.28;;;1.05;;
33836;SDS011;20140;49.356;8.812;2023-04-03T14:54:51;4.25;;;1.52;;
33836;SDS011;20140;49.356;8.812;2023-04-03T14:57:17;3.80;;;1.10;;
33836;SDS011;20140;49.356;8.812;2023-04-03T14:59:44;2.78;;;1.27;;
33836;SDS011;20140;49.356;8.812;2023-04-03T15:04:57;1.85;;;1.10;;
33836;SDS011;20140;49.356;8.812;2023-04-03T15:07:24;2.47;;;1.33;;
33836;SDS011;20140;49.356;8.812;2023-04-03T15:09:52;3.20;;;1.80;;
33836;SDS011;20140;49.356;8.812;2023-04-03T15:12:17;2.63;;;1.30;;
33836;SDS011;20140;49.356;8.812;2023-04-03T15:14:43;4.23;;;1.43;;
33836;SDS011;20140;49.356;8.812;2023-04-03T15:17:14;1.10;;;0.90;;
33836;SDS011;20140;49.356;8.812;2023-04-03T15:19:43;2.58;;;1.30;;
33836;SDS011;20140;49.356;8.812;2023-04-03T15:22:15;3.15;;;1.30;;
33836;SDS011;20140;49.356;8.812;2023-04-03T15:24:42;2.03;;;1.45;;
33836;SDS011;20140;49.356;8.812;2023-04-03T15:27:09;2.05;;;1.42;;
33836;SDS011;20140;49.356;8.812;2023-04-03T15:29:36;2.28;;;1.10;;
33836;SDS011;20140;49.356;8.812;2023-04-03T15:32:02;1.90;;;1.00;;
33836;SDS011;20140;49.356;8.812;2023-04-03T15:34:28;2.57;;;1.40;;
33836;SDS011;20140;49.356;8.812;2023-04-03T15:36:54;2.43;;;1.20;;
33836;SDS011;20140;49.356;8.812;2023-04-03T15:39:19;2.47;;;0.95;;
33836;SDS011;20140;49.356;8.812;2023-04-03T15:41:46;3.15;;;1.33;;
33836;SDS011;20140;49.356;8.812;2023-04-03T15:44:11;1.05;;;0.70;;
33836;SDS011;20140;49.356;8.812;2023-04-03T15:46:37;1.50;;;1.00;;
33836;SDS011;20140;49.356;8.812;2023-04-03T15:49:04;2.63;;;1.15;;
33836;SDS011;20140;49.356;8.812;2023-04-03T15:51:30;3.63;;;1.10;;
33836;SDS011;20140;49.356;8.812;2023-04-03T15:53:56;1.50;;;0.70;;
33836;SDS011;20140;49.356;8.812;2023-04-03T15:56:21;1.97;;;1.40;;
33836;SDS011;20140;49.356;8.812;2023-04-03T15:58:47;2.42;;;1.52;;
33836;SDS011;20140;49.356;8.812;2023-04-03T16:01:12;1.63;;;0.90;;
33836;SDS011;20140;49.356;8.812;2023-04-03T16:03:39;1.47;;;1.10;;
33836;SDS011;20140;49.356;8.812;2023-04-03T16:06:10;1.50;;;0.90;;
33836;SDS011;20140;49.356;8.812;2023-04-03T16:08:36;4.13;;;1.40;;
33836;SDS011;20140;49.356;8.812;2023-04-03T16:11:02;2.05;;;0.98;;
33836;SDS011;20140;49.356;8.812;2023-04-03T16:13:28;2.38;;;0.90;;
33836;SDS011;20140;49.356;8.812;2023-04-03T16:15:54;3.43;;;0.90;;
33836;SDS011;20140;49.356;8.812;2023-04-03T16:18:19;1.10;;;0.85;;
33836;SDS011;20140;49.356;8.812;2023-04-03T16:20:45;2.47;;;0.82;;
33836;SDS011;20140;49.356;8.812;2023-04-03T16:23:11;2.40;;;1.17;;
33836;SDS011;20140;49.356;8.812;2023-04-03T16:25:37;2.10;;;1.13;;
33836;SDS011;20140;49.356;8.812;2023-04-03T16:28:02;2.27;;;1.10;;
33836;SDS011;20140;49.356;8.812;2023-04-03T16:30:28;2.28;;;1.10;;
33836;SDS011;20140;49.356;8.812;2023-04-03T16:32:54;1.60;;;1.00;;